Time;durP1;ratioP1;P1;durP2;ratioP2;P2;SDS_P1;SDS_P2;PMS_P1;PMS_P2;Temp;Humidity;BMP_temperature;BMP_pressure;BME280_temperature;BME280_humidity;BME280_pressure;Samples;Min_cycle;Max_cycle;Signal;HPM_P1;HPM_P2
2022/09/21 00:01:15;;;;;;;0.90;0.60;;;16.70;71.20;;;;;;5029587;28;20211;-67
2022/09/21 00:03:42;;;;;;;1.87;0.63;;;16.70;71.40;;;;;;5028015;28;20226;-67
2022/09/21 00:06:12;;;;;;;4.67;1.17;;;16.70;71.40;;;;;;5027687;28;20235;-67
2022/09/21 00:08:40;;;;;;;3.07;0.50;;;16.70;71.50;;;;;;5022580;28;20276;-68
2022/09/21 00:11:10;;;;;;;1.23;0.77;;;16.60;71.60;;;;;;5032652;28;20238;-67
2022/09/21 00:13:37;;;;;;;6.07;0.97;;;16.60;71.70;;;;;;5027289;28;20226;-68
2022/09/21 00:16:06;;;;;;;0.60;0.50;;;16.60;71.90;;;;;;5024321;28;20646;-67
2022/09/21 00:18:34;;;;;;;0.87;0.50;;;16.50;71.90;;;;;;5023013;28;20239;-67
2022/09/21 00:21:08;;;;;;;2.07;0.50;;;16.50;71.90;;;;;;5019791;28;20254;-68
2022/09/21 00:23:35;;;;;;;2.07;0.90;;;16.50;72.20;;;;;;5024564;28;20264;-67
2022/09/21 00:26:07;;;;;;;0.47;0.43;;;16.50;72.40;;;;;;5026939;28;20195;-67
2022/09/21 00:28:35;;;;;;;0.50;0.50;;;16.50;72.90;;;;;;5043646;28;20596;-67
2022/09/21 00:31:08;;;;;;;2.70;1.00;;;16.40;73.00;;;;;;5025017;28;20616;-67
2022/09/21 00:33:35;;;;;;;1.33;0.67;;;16.40;73.00;;;;;;5030561;28;20238;-67
2022/09/21 00:36:04;;;;;;;1.97;0.73;;;16.40;73.10;;;;;;5024350;28;20227;-68
2022/09/21 00:38:32;;;;;;;1.33;0.70;;;16.40;73.30;;;;;;5025017;28;20207;-67
2022/09/21 00:40:59;;;;;;;2.53;0.70;;;16.40;73.40;;;;;;5020641;28;20207;-67
2022/09/21 00:43:27;;;;;;;5.30;0.53;;;16.40;73.50;;;;;;5019870;28;20216;-67
2022/09/21 00:46:05;;;;;;;1.37;0.73;;;16.30;73.70;;;;;;5021517;28;20207;-68
2022/09/21 00:48:33;;;;;;;1.07;0.63;;;16.20;73.80;;;;;;5025528;28;20231;-67
2022/09/21 00:51:04;;;;;;;2.00;1.07;;;16.20;73.80;;;;;;5022055;28;20203;-67
2022/09/21 00:53:32;;;;;;;3.43;2.10;;;16.10;74.30;;;;;;5023477;28;20252;-67
2022/09/21 00:56:01;;;;;;;2.97;2.13;;;16.00;75.10;;;;;;5021131;28;20199;-68
2022/09/21 00:58:39;;;;;;;4.17;2.00;;;15.90;75.60;;;;;;5021076;28;20201;-67
2022/09/21 01:01:06;;;;;;;3.03;2.07;;;15.90;75.80;;;;;;5027616;28;20241;-67
2022/09/21 01:03:34;;;;;;;3.60;2.10;;;15.80;75.80;;;;;;5020433;28;20253;-68
2022/09/21 01:06:01;;;;;;;3.90;2.70;;;15.80;76.10;;;;;;5031840;28;20222;-68
2022/09/21 01:08:28;;;;;;;8.97;3.37;;;15.70;76.50;;;;;;5022289;28;20236;-67
2022/09/21 01:11:13;;;;;;;4.33;2.90;;;15.70;77.00;;;;;;5022609;28;20676;-67
2022/09/21 01:14:04;;;;;;;4.73;3.47;;;15.70;77.30;;;;;;5019693;28;20275;-67
2022/09/21 01:17:01;;;;;;;5.47;2.90;;;15.70;77.30;;;;;;5027628;28;20281;-67
2022/09/21 01:20:07;;;;;;;5.10;2.73;;;15.70;77.20;;;;;;5027141;28;20243;-67
2022/09/21 01:22:40;;;;;;;3.83;2.63;;;15.60;77.40;;;;;;5024574;28;20222;-67
2022/09/21 01:25:23;;;;;;;5.00;3.10;;;15.50;77.60;;;;;;5020399;28;20580;-67
2022/09/21 01:28:08;;;;;;;7.30;3.30;;;15.60;78.00;;;;;;5024083;28;20287;-67
2022/09/21 01:30:38;;;;;;;7.03;3.23;;;15.60;77.90;;;;;;5024608;28;20265;-67
2022/09/21 01:33:19;;;;;;;5.57;2.97;;;15.60;78.00;;;;;;5022233;28;20200;-67
2022/09/21 01:35:51;;;;;;;3.57;2.67;;;15.60;78.20;;;;;;5018884;28;20270;-67
2022/09/21 01:38:32;;;;;;;5.53;2.57;;;15.60;78.20;;;;;;5022610;28;20222;-67
2022/09/21 01:41:01;;;;;;;4.97;2.60;;;15.60;78.20;;;;;;5013493;28;20236;-68
2022/09/21 01:43:57;;;;;;;4.70;2.70;;;15.60;78.10;;;;;;5021326;28;20208;-67
2022/09/21 01:46:29;;;;;;;5.27;2.73;;;15.60;78.30;;;;;;5029078;28;20218;-67
2022/09/21 01:49:03;;;;;;;2.83;2.23;;;15.60;78.30;;;;;;5021525;28;20258;-67
2022/09/21 01:51:33;;;;;;;2.90;1.93;;;15.60;78.30;;;;;;5025669;28;20203;-67
2022/09/21 01:54:20;;;;;;;2.77;1.53;;;15.60;78.50;;;;;;5020163;28;20574;-67
2022/09/21 01:56:54;;;;;;;1.83;1.50;;;15.60;79.10;;;;;;5024154;28;20235;-67
2022/09/21 01:59:52;;;;;;;1.57;1.47;;;15.60;80.10;;;;;;5028039;28;20295;-67
2022/09/21 02:02:35;;;;;;;3.97;1.60;;;15.60;79.70;;;;;;5018614;28;20219;-67
2022/09/21 02:05:04;;;;;;;1.60;1.50;;;15.60;79.80;;;;;;5027272;28;20267;-67
2022/09/21 02:07:33;;;;;;;4.23;1.63;;;15.60;80.10;;;;;;5019043;28;20238;-68
2022/09/21 02:10:01;;;;;;;2.47;1.70;;;15.60;80.50;;;;;;5021429;28;20264;-67
2022/09/21 02:12:31;;;;;;;2.67;1.80;;;15.60;80.70;;;;;;5021917;28;20207;-67
2022/09/21 02:14:59;;;;;;;4.53;1.83;;;15.60;81.30;;;;;;5020773;28;20211;-67
2022/09/21 02:17:42;;;;;;;6.53;2.10;;;15.60;81.70;;;;;;5020666;28;20210;-67
2022/09/21 02:20:17;;;;;;;3.67;2.40;;;15.60;82.30;;;;;;5028873;28;20215;-67
2022/09/21 02:23:38;;;;;;;3.40;2.20;;;15.60;82.90;;;;;;5012252;28;20234;-68
2022/09/21 02:26:12;;;;;;;4.73;2.50;;;15.60;83.10;;;;;;5010350;28;20216;-67
2022/09/21 02:28:45;;;;;;;5.50;2.40;;;15.60;83.60;;;;;;5014785;28;20274;-67
2022/09/21 02:31:38;;;;;;;6.57;2.60;;;15.60;83.80;;;;;;5022649;28;20220;-67
2022/09/21 02:34:17;;;;;;;5.57;3.10;;;15.60;83.90;;;;;;5022386;28;20213;-67
2022/09/21 02:36:55;;;;;;;4.03;2.20;;;15.60;83.90;;;;;;5022431;28;20624;-67
2022/09/21 02:39:36;;;;;;;3.13;1.60;;;15.60;83.50;;;;;;5030593;28;20259;-67
2022/09/21 02:42:06;;;;;;;3.20;1.13;;;15.60;83.20;;;;;;5021182;28;20199;-67
2022/09/21 02:44:51;;;;;;;2.17;1.23;;;15.60;82.20;;;;;;5020254;28;20241;-67
2022/09/21 02:47:25;;;;;;;3.97;1.10;;;15.60;81.30;;;;;;5020474;28;20292;-67
2022/09/21 02:49:57;;;;;;;5.17;1.13;;;15.70;80.70;;;;;;5019720;28;20227;-67
2022/09/21 02:52:26;;;;;;;1.10;0.67;;;15.70;80.30;;;;;;5026928;28;20207;-67
2022/09/21 02:54:55;;;;;;;3.50;0.90;;;15.70;79.80;;;;;;5019625;28;20624;-67
2022/09/21 02:57:23;;;;;;;3.17;1.10;;;15.70;79.10;;;;;;5026454;28;20272;-67
2022/09/21 02:59:51;;;;;;;3.87;0.80;;;15.80;78.10;;;;;;5019336;28;20693;-67
2022/09/21 03:02:18;;;;;;;1.03;0.70;;;15.80;78.60;;;;;;5019792;28;20268;-67
2022/09/21 03:04:46;;;;;;;0.67;0.50;;;15.80;77.50;;;;;;5024292;28;20317;-67
2022/09/21 03:07:16;;;;;;;4.67;1.03;;;15.80;77.10;;;;;;5021389;28;20204;-67
2022/09/21 03:09:44;;;;;;;2.77;0.70;;;15.80;76.80;;;;;;5018324;28;20208;-67
2022/09/21 03:12:11;;;;;;;1.63;0.67;;;15.80;76.90;;;;;;5019964;28;20207;-67
2022/09/21 03:14:38;;;;;;;3.40;0.90;;;15.80;76.90;;;;;;5024799;28;20576;-67
2022/09/21 03:17:05;;;;;;;1.07;0.50;;;15.80;76.80;;;;;;5025645;28;20708;-67
2022/09/21 03:19:32;;;;;;;1.00;0.50;;;15.80;76.80;;;;;;5028469;28;20293;-68
2022/09/21 03:21:59;;;;;;;0.63;0.50;;;15.80;76.80;;;;;;5025987;28;20699;-67
2022/09/21 03:27:23;;;;;;;1.07;0.80;;;15.80;76.90;;;;;;5026959;28;20622;-67
2022/09/21 03:29:50;;;;;;;1.33;0.50;;;15.80;76.80;;;;;;5028534;28;20202;-67
2022/09/21 03:32:17;;;;;;;1.13;0.63;;;15.80;76.90;;;;;;5020578;28;20222;-68
2022/09/21 03:34:44;;;;;;;2.77;0.70;;;15.80;76.90;;;;;;5027813;28;20210;-67
2022/09/21 03:37:11;;;;;;;1.83;0.60;;;15.80;77.00;;;;;;5029327;28;20237;-67
2022/09/21 03:39:38;;;;;;;1.37;0.50;;;15.80;77.20;;;;;;5026590;28;20234;-68
2022/09/21 03:42:05;;;;;;;2.27;0.87;;;15.70;77.40;;;;;;5021818;28;20205;-67
2022/09/21 03:44:32;;;;;;;1.87;0.70;;;15.70;77.50;;;;;;5028683;28;20278;-67
2022/09/21 03:46:59;;;;;;;0.87;0.63;;;15.70;77.70;;;;;;5026563;28;20200;-67
2022/09/21 03:49:26;;;;;;;0.83;0.60;;;15.70;77.80;;;;;;5026719;28;20237;-68
2022/09/21 03:51:54;;;;;;;3.07;0.70;;;15.60;78.00;;;;;;5024374;28;20199;-67
2022/09/21 03:54:21;;;;;;;1.70;0.57;;;15.60;78.20;;;;;;5025101;28;20214;-67
2022/09/21 03:56:48;;;;;;;1.13;0.80;;;15.60;78.40;;;;;;5023847;28;20286;-68
2022/09/21 03:59:16;;;;;;;1.07;0.60;;;15.60;78.50;;;;;;5026313;28;20211;-68
2022/09/21 04:01:43;;;;;;;1.90;0.70;;;15.60;78.70;;;;;;5022410;28;20706;-67
2022/09/21 04:04:10;;;;;;;1.97;0.50;;;15.50;78.70;;;;;;5021996;28;20204;-68
2022/09/21 04:06:38;;;;;;;2.93;0.80;;;15.50;78.90;;;;;;5025142;28;20204;-67
2022/09/21 04:09:05;;;;;;;2.00;0.60;;;15.50;79.00;;;;;;5011139;28;20238;-68
2022/09/21 04:11:32;;;;;;;1.67;0.40;;;15.50;79.10;;;;;;5025503;28;20237;-67
2022/09/21 04:13:59;;;;;;;0.90;0.50;;;15.40;79.10;;;;;;5020466;28;20234;-67
2022/09/21 04:16:27;;;;;;;1.53;0.70;;;15.40;79.20;;;;;;5020028;28;20214;-67
2022/09/21 04:18:54;;;;;;;0.73;0.50;;;15.40;79.50;;;;;;5029441;28;20243;-68
2022/09/21 04:21:21;;;;;;;0.43;0.40;;;15.40;79.60;;;;;;5023357;28;20550;-68
2022/09/21 04:23:48;;;;;;;1.70;0.60;;;15.40;79.70;;;;;;5021027;28;20195;-68
2022/09/21 04:26:28;;;;;;;2.83;0.70;;;15.40;79.90;;;;;;5023838;28;20203;-67
2022/09/21 04:28:55;;;;;;;0.80;0.60;;;15.40;80.20;;;;;;5028345;28;20276;-67
2022/09/21 04:31:24;;;;;;;0.77;0.60;;;15.40;80.20;;;;;;5024064;28;20202;-68
2022/09/21 04:33:53;;;;;;;2.30;0.40;;;15.50;80.30;;;;;;5024198;28;20253;-67
2022/09/21 04:36:22;;;;;;;0.60;0.60;;;15.50;80.40;;;;;;5024040;28;20221;-67
2022/09/21 04:38:49;;;;;;;2.10;0.70;;;15.50;80.60;;;;;;5027597;28;20243;-67
2022/09/21 04:41:17;;;;;;;3.17;0.87;;;15.60;80.70;;;;;;5026695;28;20203;-67
2022/09/21 04:43:46;;;;;;;4.80;1.00;;;15.60;80.70;;;;;;5023210;28;20207;-67
2022/09/21 04:46:15;;;;;;;0.80;0.50;;;15.60;80.60;;;;;;5017757;28;20678;-67
2022/09/21 04:48:43;;;;;;;1.80;0.70;;;15.70;80.70;;;;;;5022037;28;20250;-68
2022/09/21 04:51:10;;;;;;;1.70;0.70;;;15.70;80.70;;;;;;5023084;28;20256;-67
2022/09/21 04:53:39;;;;;;;5.33;0.70;;;15.70;80.60;;;;;;5022389;28;20202;-67
2022/09/21 04:56:08;;;;;;;0.70;0.70;;;15.80;80.50;;;;;;5019811;28;20565;-68
2022/09/21 04:58:35;;;;;;;0.50;0.40;;;15.80;80.40;;;;;;5022469;28;20293;-68
2022/09/21 05:01:03;;;;;;;1.20;0.70;;;15.80;80.20;;;;;;5022567;28;20569;-67
2022/09/21 05:03:30;;;;;;;0.70;0.60;;;15.80;80.60;;;;;;5022908;28;20631;-68
2022/09/21 05:05:58;;;;;;;1.13;0.60;;;15.80;80.60;;;;;;5028445;28;20223;-68
2022/09/21 05:11:19;;;;;;;1.77;0.67;;;15.80;80.80;;;;;;5030083;28;20534;-68
2022/09/21 05:13:47;;;;;;;0.70;0.40;;;15.90;80.90;;;;;;5037637;28;20210;-67
2022/09/21 05:16:14;;;;;;;1.07;0.53;;;15.90;81.00;;;;;;5020420;28;20215;-67
2022/09/21 05:18:41;;;;;;;1.00;0.50;;;15.90;80.80;;;;;;5025373;28;20243;-67
2022/09/21 05:21:13;;;;;;;1.03;0.63;;;16.00;80.60;;;;;;5024949;28;20424;-67
2022/09/21 05:23:40;;;;;;;2.23;0.57;;;16.00;80.50;;;;;;5024625;28;20206;-67
2022/09/21 05:26:07;;;;;;;2.03;0.93;;;16.10;80.50;;;;;;5021621;28;20638;-68
2022/09/21 05:28:34;;;;;;;1.57;0.60;;;16.10;80.50;;;;;;5021368;28;20274;-67
2022/09/21 05:31:12;;;;;;;7.03;0.80;;;16.20;80.50;;;;;;5021865;28;20207;-67
2022/09/21 05:33:51;;;;;;;3.20;0.53;;;16.20;80.60;;;;;;5022713;28;20219;-67
2022/09/21 05:36:46;;;;;;;2.03;1.00;;;16.20;80.30;;;;;;5027289;28;20295;-67
2022/09/21 05:39:13;;;;;;;1.97;0.80;;;16.20;80.10;;;;;;5023541;28;20233;-67
2022/09/21 05:41:41;;;;;;;1.20;0.67;;;16.30;80.10;;;;;;5027316;28;20218;-68
2022/09/21 05:44:13;;;;;;;1.70;0.47;;;16.30;80.10;;;;;;5022194;28;20200;-67
2022/09/21 05:47:26;;;;;;;1.63;0.53;;;16.30;80.00;;;;;;5025308;28;20222;-67
2022/09/21 05:50:37;;;;;;;1.13;0.70;;;16.40;79.90;;;;;;5013332;28;20245;-68
2022/09/21 05:53:32;;;;;;;0.67;0.50;;;16.40;79.60;;;;;;5023255;28;20291;-67
2022/09/21 05:56:05;;;;;;;0.53;0.53;;;16.50;79.60;;;;;;5004736;28;20801;-67
2022/09/21 05:58:50;;;;;;;3.90;0.90;;;16.50;79.40;;;;;;5019200;28;20199;-67
2022/09/21 06:01:37;;;;;;;1.67;0.50;;;16.60;78.80;;;;;;5026041;28;20660;-67
2022/09/21 06:04:11;;;;;;;2.07;0.67;;;16.60;78.30;;;;;;5022282;28;20205;-67
2022/09/21 06:06:38;;;;;;;0.67;0.50;;;16.60;78.30;;;;;;5024590;28;20550;-67
2022/09/21 06:09:05;;;;;;;0.80;0.60;;;16.70;78.00;;;;;;5016303;28;20235;-67
2022/09/21 06:11:33;;;;;;;1.37;0.70;;;16.70;77.80;;;;;;5018827;28;20232;-67
2022/09/21 06:14:01;;;;;;;3.80;0.73;;;16.80;77.90;;;;;;5026321;28;20221;-67
2022/09/21 06:16:39;;;;;;;1.00;0.60;;;16.90;77.90;;;;;;5019283;28;20200;-67
2022/09/21 06:19:09;;;;;;;0.97;0.53;;;16.90;77.70;;;;;;5008000;28;20621;-68
2022/09/21 06:21:36;;;;;;;2.33;0.87;;;17.00;77.70;;;;;;5017434;28;21359;-68
2022/09/21 06:24:04;;;;;;;6.60;1.00;;;17.00;77.90;;;;;;5021876;28;20207;-67
2022/09/21 06:26:31;;;;;;;2.17;0.73;;;17.10;78.00;;;;;;5021545;28;20207;-67
2022/09/21 06:28:59;;;;;;;1.37;0.67;;;17.10;77.90;;;;;;5019138;28;20675;-67
2022/09/21 06:31:26;;;;;;;2.27;0.70;;;17.20;77.90;;;;;;5014668;28;20208;-68
2022/09/21 06:33:53;;;;;;;1.53;0.77;;;17.20;77.60;;;;;;5019871;28;20258;-68
2022/09/21 06:36:21;;;;;;;0.90;0.60;;;17.20;77.30;;;;;;5023323;28;20604;-67
2022/09/21 06:38:48;;;;;;;2.17;1.00;;;17.20;76.60;;;;;;5020307;28;20262;-68
2022/09/21 06:41:15;;;;;;;3.30;0.70;;;17.20;76.30;;;;;;5017743;28;20206;-68
2022/09/21 06:43:47;;;;;;;1.83;0.60;;;17.20;76.30;;;;;;5023180;28;20215;-68
2022/09/21 06:46:14;;;;;;;0.67;0.67;;;17.20;75.80;;;;;;5021975;28;20290;-67
2022/09/21 06:48:41;;;;;;;2.73;0.80;;;17.20;75.70;;;;;;5024694;28;20238;-67
2022/09/21 06:51:09;;;;;;;2.20;0.70;;;17.20;76.00;;;;;;5027525;28;20285;-67
2022/09/21 06:53:36;;;;;;;0.97;0.77;;;17.20;75.80;;;;;;5006526;28;20621;-68
2022/09/21 06:56:07;;;;;;;0.50;0.50;;;17.30;76.20;;;;;;5025132;28;20291;-67
2022/09/21 06:58:36;;;;;;;2.20;0.77;;;17.40;76.50;;;;;;5022108;28;20211;-66
2022/09/21 07:01:11;;;;;;;1.30;0.73;;;17.50;76.20;;;;;;5019661;28;20602;-68
2022/09/21 07:03:40;;;;;;;1.77;0.90;;;17.60;75.90;;;;;;5023870;28;20237;-67
2022/09/21 07:06:10;;;;;;;0.87;0.83;;;17.70;75.90;;;;;;5024851;28;20235;-67
2022/09/21 07:08:38;;;;;;;2.30;0.93;;;17.80;74.80;;;;;;5022054;28;20220;-68
2022/09/21 07:11:26;;;;;;;1.93;1.20;;;17.90;74.60;;;;;;5019800;28;20243;-68
2022/09/21 07:13:54;;;;;;;1.07;0.87;;;18.00;74.10;;;;;;5025624;28;20676;-68
2022/09/21 07:16:22;;;;;;;2.87;0.70;;;18.00;74.10;;;;;;5019544;28;20213;-68
2022/09/21 07:18:49;;;;;;;1.43;0.70;;;18.10;74.10;;;;;;5022065;28;20292;-67
2022/09/21 07:21:16;;;;;;;7.47;0.90;;;18.10;73.90;;;;;;5018085;28;20704;-68
2022/09/21 07:23:43;;;;;;;2.13;0.90;;;18.10;73.30;;;;;;5021708;28;20234;-68
2022/09/21 07:26:12;;;;;;;1.03;0.80;;;18.10;73.10;;;;;;5023874;28;20213;-68
2022/09/21 07:28:39;;;;;;;2.13;0.97;;;18.00;72.60;;;;;;5023760;28;20259;-67
2022/09/21 07:31:13;;;;;;;2.03;0.97;;;18.00;72.90;;;;;;5027334;28;20255;-67
2022/09/21 07:33:41;;;;;;;1.87;1.20;;;18.00;73.40;;;;;;5020294;28;20626;-67
2022/09/21 07:36:09;;;;;;;1.83;1.20;;;17.90;73.50;;;;;;5023050;28;20230;-68
2022/09/21 07:38:38;;;;;;;1.97;1.40;;;17.80;73.40;;;;;;5026089;28;20217;-67
2022/09/21 07:41:10;;;;;;;2.23;1.40;;;17.80;74.00;;;;;;5022085;28;20210;-67
2022/09/21 07:43:40;;;;;;;1.13;1.03;;;17.70;74.00;;;;;;5024365;28;20543;-67
2022/09/21 07:46:10;;;;;;;1.67;1.07;;;17.70;73.80;;;;;;5022003;28;20210;-68
2022/09/21 07:48:38;;;;;;;1.23;0.83;;;17.60;74.20;;;;;;5022491;28;20228;-67
2022/09/21 07:51:10;;;;;;;9.50;1.50;;;17.60;74.30;;;;;;5010414;28;20511;-67
2022/09/21 07:53:39;;;;;;;3.07;0.97;;;17.60;74.20;;;;;;5020234;28;20276;-67
2022/09/21 07:56:09;;;;;;;3.60;1.03;;;17.60;74.20;;;;;;5020857;28;20220;-67
2022/09/21 08:01:24;;;;;;;1.53;1.07;;;17.60;74.20;;;;;;5024335;28;20300;-67
2022/09/21 08:03:52;;;;;;;2.00;0.90;;;17.60;73.90;;;;;;5033967;28;20203;-67
2022/09/21 08:06:20;;;;;;;3.03;0.90;;;17.60;73.90;;;;;;5028456;28;20617;-71
2022/09/21 08:08:48;;;;;;;2.03;1.00;;;17.60;74.50;;;;;;5029838;28;20588;-71
2022/09/21 08:11:22;;;;;;;1.13;0.77;;;17.60;75.30;;;;;;5026477;28;20215;-72
2022/09/21 08:13:54;;;;;;;1.27;1.00;;;17.60;75.20;;;;;;5021803;28;20239;-71
2022/09/21 08:16:22;;;;;;;1.80;0.97;;;17.60;74.70;;;;;;5017599;28;20192;-71
2022/09/21 08:18:50;;;;;;;1.10;1.00;;;17.60;75.00;;;;;;5028318;28;20757;-70
2022/09/21 08:21:19;;;;;;;4.60;0.97;;;17.60;75.80;;;;;;5024637;28;20216;-71
2022/09/21 08:23:48;;;;;;;1.33;0.90;;;17.60;76.10;;;;;;5023519;28;20293;-70
2022/09/21 08:26:17;;;;;;;2.30;0.70;;;17.60;76.10;;;;;;5022812;28;20212;-70
2022/09/21 08:28:50;;;;;;;1.20;1.00;;;17.70;76.60;;;;;;5017452;28;20312;-70
2022/09/21 08:31:19;;;;;;;2.67;1.00;;;17.70;76.80;;;;;;5029831;28;20207;-70
2022/09/21 08:33:48;;;;;;;2.57;1.10;;;17.80;76.80;;;;;;5022980;28;20624;-71
2022/09/21 08:36:16;;;;;;;2.83;0.90;;;17.80;76.20;;;;;;5022764;28;20214;-70
2022/09/21 08:38:44;;;;;;;2.97;1.10;;;17.90;74.60;;;;;;5023897;28;20558;-71
2022/09/21 08:41:41;;;;;;;1.30;0.93;;;17.90;75.00;;;;;;5021874;28;20239;-71
2022/09/21 08:44:13;;;;;;;0.87;0.87;;;18.00;75.40;;;;;;5025979;28;20228;-71
2022/09/21 08:46:42;;;;;;;2.27;1.23;;;18.10;75.60;;;;;;5017713;28;20220;-70
2022/09/21 08:49:22;;;;;;;4.30;1.10;;;18.20;74.10;;;;;;5029781;28;20244;-70
2022/09/21 08:51:58;;;;;;;6.13;1.13;;;18.30;73.20;;;;;;5025113;28;20262;-70
2022/09/21 08:54:31;;;;;;;2.47;1.20;;;18.30;73.00;;;;;;5027057;28;20204;-71
2022/09/21 08:56:59;;;;;;;4.30;1.30;;;18.40;73.30;;;;;;5024566;28;20208;-71
2022/09/21 08:59:32;;;;;;;3.73;1.07;;;18.50;72.50;;;;;;5022937;28;20216;-71
2022/09/21 09:02:32;;;;;;;3.07;1.00;;;18.60;73.20;;;;;;5024670;28;20216;-71
2022/09/21 09:05:32;;;;;;;2.73;1.00;;;18.70;72.60;;;;;;5023342;28;20201;-70
2022/09/21 09:08:39;;;;;;;4.43;1.23;;;18.90;72.20;;;;;;5022898;28;20241;-70
2022/09/21 09:11:09;;;;;;;1.00;0.93;;;19.00;70.60;;;;;;5025466;28;20684;-71
2022/09/21 09:14:09;;;;;;;5.03;1.33;;;19.20;70.60;;;;;;5021932;28;20229;-71
2022/09/21 09:16:39;;;;;;;2.73;1.30;;;19.40;71.50;;;;;;5023974;28;20200;-72
2022/09/21 09:19:21;;;;;;;2.00;1.00;;;19.60;70.40;;;;;;5032596;28;20240;-71
2022/09/21 09:21:48;;;;;;;3.80;1.20;;;19.90;67.00;;;;;;5024554;28;20236;-71
2022/09/21 09:24:39;;;;;;;1.20;0.83;;;20.10;66.70;;;;;;5028920;28;20238;-71
2022/09/21 09:27:43;;;;;;;0.70;0.63;;;20.20;64.90;;;;;;5021184;28;20272;-71
2022/09/21 09:30:24;;;;;;;1.13;0.80;;;20.20;65.20;;;;;;5029822;28;20275;-71
2022/09/21 09:33:03;;;;;;;1.67;1.10;;;20.30;66.30;;;;;;5024318;28;20268;-71
2022/09/21 09:35:39;;;;;;;2.97;1.03;;;20.30;66.80;;;;;;5022982;28;20268;-71
2022/09/21 09:38:18;;;;;;;2.27;1.13;;;20.40;66.80;;;;;;5025702;28;20205;-71
2022/09/21 09:40:52;;;;;;;2.67;1.20;;;20.50;66.90;;;;;;5022188;28;20200;-71
2022/09/21 09:43:36;;;;;;;3.27;1.00;;;20.60;66.70;;;;;;5018604;28;20210;-71
2022/09/21 09:46:48;;;;;;;1.77;1.00;;;20.70;67.20;;;;;;5018996;28;20277;-71
2022/09/21 09:49:24;;;;;;;2.83;0.97;;;20.80;66.10;;;;;;5019787;28;20246;-71
2022/09/21 09:51:51;;;;;;;2.07;1.27;;;21.10;65.60;;;;;;5020175;28;20284;-71
2022/09/21 09:54:23;;;;;;;1.90;1.27;;;21.30;65.10;;;;;;5024670;28;20632;-72
2022/09/21 09:56:49;;;;;;;1.40;1.03;;;21.60;64.70;;;;;;5023824;28;20215;-72
2022/09/21 09:59:23;;;;;;;3.50;1.00;;;21.90;63.30;;;;;;5018904;28;20203;-71
2022/09/21 10:02:01;;;;;;;2.00;1.40;;;22.20;61.00;;;;;;5020347;28;20231;-71
2022/09/21 10:04:29;;;;;;;1.93;1.10;;;22.50;61.90;;;;;;5029329;28;20293;-72
2022/09/21 10:06:57;;;;;;;3.13;1.57;;;22.80;61.10;;;;;;5023836;28;20215;-71
2022/09/21 10:09:29;;;;;;;1.97;1.03;;;22.90;60.50;;;;;;5024321;28;20381;-71
2022/09/21 10:12:12;;;;;;;5.53;1.37;;;23.00;59.30;;;;;;5024898;28;20260;-70
2022/09/21 10:14:55;;;;;;;1.10;0.93;;;23.00;59.70;;;;;;5027423;28;20207;-72
2022/09/21 10:17:24;;;;;;;2.00;1.33;;;23.00;59.30;;;;;;5022738;28;20280;-71
2022/09/21 10:20:03;;;;;;;2.77;1.23;;;22.90;59.10;;;;;;5024304;28;20666;-71
2022/09/21 10:22:30;;;;;;;1.00;0.90;;;23.00;59.20;;;;;;5020072;28;20207;-71
2022/09/21 10:25:00;;;;;;;1.03;0.80;;;23.10;58.90;;;;;;5021402;28;20250;-71
2022/09/21 10:27:34;;;;;;;1.67;1.17;;;23.30;58.10;;;;;;5038888;28;20216;-71
2022/09/21 10:30:02;;;;;;;2.67;0.80;;;23.50;56.80;;;;;;5019235;28;20284;-71
2022/09/21 10:32:29;;;;;;;2.97;0.87;;;23.60;56.10;;;;;;5015637;28;20269;-71
2022/09/21 10:35:09;;;;;;;1.27;0.90;;;23.80;55.30;;;;;;5017322;28;20210;-71
2022/09/21 10:37:40;;;;;;;1.33;0.60;;;23.80;55.00;;;;;;5021737;28;20211;-71
2022/09/21 10:40:19;;;;;;;1.90;0.57;;;23.90;54.40;;;;;;5010825;28;20200;-72
2022/09/21 10:42:53;;;;;;;4.53;0.80;;;23.90;54.00;;;;;;5019025;28;20213;-70
2022/09/21 10:45:27;;;;;;;2.30;0.80;;;24.00;53.20;;;;;;5023460;28;20203;-71
2022/09/21 10:48:12;;;;;;;1.57;0.90;;;24.00;53.00;;;;;;5018670;28;20218;-72
2022/09/21 10:50:45;;;;;;;1.73;0.77;;;24.10;53.80;;;;;;5036169;28;20251;-71
2022/09/21 10:53:17;;;;;;;5.73;1.10;;;24.30;53.10;;;;;;5017659;28;20628;-71
2022/09/21 10:56:11;;;;;;;0.87;0.60;;;24.40;52.30;;;;;;5026351;28;20203;-72
2022/09/21 10:59:12;;;;;;;5.80;0.87;;;24.50;52.40;;;;;;5022676;28;20217;-72
2022/09/21 11:01:47;;;;;;;2.43;0.50;;;24.60;52.20;;;;;;5021611;28;20206;-72
2022/09/21 11:04:30;;;;;;;1.40;0.70;;;24.60;50.50;;;;;;5004142;28;20213;-73
2022/09/21 11:07:10;;;;;;;4.33;0.97;;;24.60;50.60;;;;;;5027383;28;20274;-72
2022/09/21 11:09:40;;;;;;;2.67;0.53;;;24.70;49.60;;;;;;5022275;28;20211;-72
2022/09/21 11:12:42;;;;;;;2.83;0.50;;;24.80;48.40;;;;;;5016640;28;20199;-71
2022/09/21 11:15:29;;;;;;;2.37;0.47;;;24.80;48.30;;;;;;5017425;28;20203;-72
2022/09/21 11:18:20;;;;;;;1.23;0.50;;;24.80;47.00;;;;;;5020743;28;20245;-71
2022/09/21 11:20:53;;;;;;;0.53;0.40;;;24.70;44.90;;;;;;5022232;28;20241;-72
2022/09/21 11:23:37;;;;;;;2.20;0.60;;;24.60;44.30;;;;;;5023642;28;20261;-71
2022/09/21 11:26:12;;;;;;;0.70;0.30;;;24.60;43.90;;;;;;5048599;28;20631;-72
2022/09/21 11:28:55;;;;;;;1.63;0.50;;;24.60;44.00;;;;;;5022303;28;20207;-72
2022/09/21 11:31:43;;;;;;;1.33;0.53;;;24.60;43.70;;;;;;5028528;28;20607;-72
2022/09/21 11:34:28;;;;;;;1.47;0.50;;;24.40;42.20;;;;;;5019989;28;20217;-72
2022/09/21 11:37:29;;;;;;;0.40;0.40;;;24.00;42.90;;;;;;5028829;28;20253;-72
2022/09/21 11:40:18;;;;;;;1.17;0.43;;;23.70;44.20;;;;;;5032499;28;20229;-72
2022/09/21 11:43:16;;;;;;;1.37;0.53;;;23.30;44.30;;;;;;5025959;28;20662;-72
2022/09/21 11:46:14;;;;;;;4.27;0.50;;;22.90;44.60;;;;;;5020123;28;20258;-71
2022/09/21 11:48:47;;;;;;;1.40;0.43;;;22.90;45.30;;;;;;5021989;28;20208;-72
2022/09/21 11:51:39;;;;;;;1.60;0.40;;;23.00;45.20;;;;;;5023843;28;20297;-73
2022/09/21 11:54:19;;;;;;;0.90;0.37;;;23.20;44.20;;;;;;5025660;28;20257;-72
2022/09/21 11:56:51;;;;;;;1.87;0.53;;;23.30;43.50;;;;;;5022077;28;20295;-71
2022/09/21 11:59:37;;;;;;;1.13;0.50;;;23.50;43.70;;;;;;5025058;28;20195;-72
2022/09/21 12:02:19;;;;;;;0.50;0.47;;;23.70;42.80;;;;;;5023799;28;20231;-72
2022/09/21 12:05:17;;;;;;;2.93;0.73;;;23.80;42.60;;;;;;5026309;28;20545;-72
2022/09/21 12:08:13;;;;;;;0.90;0.50;;;23.90;42.50;;;;;;5026920;28;20211;-72
2022/09/21 12:10:50;;;;;;;1.77;0.40;;;24.00;43.50;;;;;;5023276;28;20215;-72
2022/09/21 12:13:42;;;;;;;0.40;0.40;;;24.00;42.30;;;;;;5014753;28;20204;-73
2022/09/21 12:16:18;;;;;;;0.60;0.40;;;24.10;41.10;;;;;;5023120;28;20200;-72
2022/09/21 12:19:04;;;;;;;2.20;0.40;;;24.10;41.30;;;;;;5033116;28;20293;-72
2022/09/21 12:21:57;;;;;;;0.27;0.27;;;24.10;41.80;;;;;;5027939;28;20249;-72
2022/09/21 12:24:44;;;;;;;3.13;0.70;;;24.10;41.60;;;;;;5024466;28;20212;-72
2022/09/21 12:27:37;;;;;;;0.67;0.47;;;24.10;41.80;;;;;;5034129;28;20273;-72
2022/09/21 12:30:17;;;;;;;2.50;0.60;;;24.10;40.10;;;;;;5027467;28;20714;-72
2022/09/21 12:32:49;;;;;;;1.17;0.40;;;24.10;39.30;;;;;;5025543;28;20203;-72
2022/09/21 12:35:40;;;;;;;1.27;0.50;;;24.10;41.20;;;;;;5025637;28;20207;-72
2022/09/21 12:38:35;;;;;;;0.73;0.27;;;24.10;41.20;;;;;;5022831;28;20199;-72
2022/09/21 12:41:15;;;;;;;0.30;0.30;;;24.10;40.60;;;;;;5024663;28;20207;-72
2022/09/21 12:43:45;;;;;;;0.83;0.50;;;24.10;40.60;;;;;;5027824;28;20261;-72
2022/09/21 12:46:12;;;;;;;1.30;0.60;;;24.20;41.10;;;;;;5025121;28;20210;-72
2022/09/21 12:48:41;;;;;;;1.17;0.27;;;24.20;40.30;;;;;;5021703;28;20303;-72
2022/09/21 12:51:23;;;;;;;0.40;0.40;;;24.20;40.40;;;;;;5018109;28;20215;-72
2022/09/21 12:53:57;;;;;;;0.67;0.30;;;24.20;40.20;;;;;;5030328;28;20227;-73
2022/09/21 12:56:42;;;;;;;0.47;0.13;;;24.30;40.30;;;;;;5029380;28;20207;-71
2022/09/21 12:59:36;;;;;;;0.27;0.20;;;24.30;40.40;;;;;;5015055;28;20207;-72
2022/09/21 13:02:17;;;;;;;3.03;0.60;;;24.30;41.20;;;;;;5025466;28;20222;-72
2022/09/21 13:05:05;;;;;;;1.50;0.43;;;24.30;40.20;;;;;;5023740;28;20635;-72
2022/09/21 13:07:39;;;;;;;1.03;0.33;;;24.30;40.70;;;;;;5023386;28;20207;-73
2022/09/21 13:10:15;;;;;;;1.27;0.50;;;24.30;39.30;;;;;;5026165;28;20269;-73
2022/09/21 13:12:45;;;;;;;1.03;0.53;;;24.20;39.50;;;;;;5027763;28;20236;-72
2022/09/21 13:15:24;;;;;;;1.77;0.40;;;24.20;39.70;;;;;;5029355;28;20559;-71
2022/09/21 13:18:01;;;;;;;0.30;0.30;;;24.20;40.20;;;;;;5012726;28;20239;-72
2022/09/21 13:20:38;;;;;;;2.37;0.30;;;24.20;40.50;;;;;;5027092;28;20207;-72
2022/09/21 13:23:21;;;;;;;0.33;0.33;;;24.20;39.60;;;;;;5028056;28;20203;-72
2022/09/21 13:25:59;;;;;;;0.83;0.40;;;24.20;39.90;;;;;;5029286;28;20199;-73
2022/09/21 13:28:49;;;;;;;0.73;0.30;;;24.10;39.50;;;;;;5021923;28;20717;-73
2022/09/21 13:31:16;;;;;;;0.20;0.20;;;24.10;39.80;;;;;;5032794;28;20239;-73
2022/09/21 13:34:23;;;;;;;0.30;0.30;;;24.10;39.10;;;;;;5019318;28;20227;-72
2022/09/21 13:37:15;;;;;;;2.73;0.40;;;24.00;39.10;;;;;;5031662;28;20214;-72